sensor_id;sensor_type;location;lat;lon;timestamp;P1;durP1;ratioP1;P2;durP2;ratioP2
42066;SDS011;27734;47.028;28.820;2023-02-08T00:01:29;28.80;;;10.43;;
42066;SDS011;27734;47.028;28.820;2023-02-08T00:04:01;30.63;;;11.67;;
42066;SDS011;27734;47.028;28.820;2023-02-08T00:06:34;30.10;;;11.50;;
42066;SDS011;27734;47.028;28.820;2023-02-08T00:09:06;29.23;;;11.00;;
42066;SDS011;27734;47.028;28.820;2023-02-08T00:11:38;29.67;;;11.47;;
42066;SDS011;27734;47.028;28.820;2023-02-08T00:14:10;30.17;;;11.77;;
42066;SDS011;27734;47.028;28.820;2023-02-08T00:16:43;30.47;;;11.70;;
42066;SDS011;27734;47.028;28.820;2023-02-08T00:19:15;30.20;;;10.90;;
42066;SDS011;27734;47.028;28.820;2023-02-08T00:21:47;28.50;;;10.93;;
42066;SDS011;27734;47.028;28.820;2023-02-08T00:24:20;30.60;;;11.70;;
42066;SDS011;27734;47.028;28.820;2023-02-08T00:26:52;31.17;;;12.37;;
42066;SDS011;27734;47.028;28.820;2023-02-08T00:29:24;26.83;;;9.93;;
42066;SDS011;27734;47.028;28.820;2023-02-08T00:31:56;28.90;;;11.03;;
42066;SDS011;27734;47.028;28.820;2023-02-08T00:34:29;30.03;;;11.53;;
42066;SDS011;27734;47.028;28.820;2023-02-08T00:39:33;32.77;;;11.93;;
42066;SDS011;27734;47.028;28.820;2023-02-08T00:42:06;30.13;;;10.73;;
42066;SDS011;27734;47.028;28.820;2023-02-08T00:44:38;30.50;;;11.23;;
42066;SDS011;27734;47.028;28.820;2023-02-08T00:47:10;33.97;;;12.20;;
42066;SDS011;27734;47.028;28.820;2023-02-08T00:49:43;29.20;;;11.23;;
42066;SDS011;27734;47.028;28.820;2023-02-08T00:52:17;32.30;;;12.10;;
42066;SDS011;27734;47.028;28.820;2023-02-08T00:54:49;34.70;;;13.07;;
42066;SDS011;27734;47.028;28.820;2023-02-08T00:57:21;30.63;;;11.13;;
42066;SDS011;27734;47.028;28.820;2023-02-08T00:59:54;32.17;;;11.77;;
42066;SDS011;27734;47.028;28.820;2023-02-08T01:02:26;34.90;;;13.97;;
42066;SDS011;27734;47.028;28.820;2023-02-08T01:04:58;33.10;;;13.03;;
42066;SDS011;27734;47.028;28.820;2023-02-08T01:07:31;33.87;;;12.53;;
42066;SDS011;27734;47.028;28.820;2023-02-08T01:10:05;33.13;;;11.50;;
42066;SDS011;27734;47.028;28.820;2023-02-08T01:12:40;32.03;;;12.50;;
42066;SDS011;27734;47.028;28.820;2023-02-08T01:15:13;34.23;;;12.87;;
42066;SDS011;27734;47.028;28.820;2023-02-08T01:17:45;34.87;;;12.20;;
42066;SDS011;27734;47.028;28.820;2023-02-08T01:20:22;32.40;;;11.53;;
42066;SDS011;27734;47.028;28.820;2023-02-08T01:22:55;30.53;;;10.33;;
42066;SDS011;27734;47.028;28.820;2023-02-08T01:25:27;30.53;;;11.80;;
42066;SDS011;27734;47.028;28.820;2023-02-08T01:28:00;29.27;;;11.85;;
42066;SDS011;27734;47.028;28.820;2023-02-08T01:30:33;29.93;;;12.00;;
42066;SDS011;27734;47.028;28.820;2023-02-08T01:33:06;29.80;;;11.50;;
42066;SDS011;27734;47.028;28.820;2023-02-08T01:35:38;31.03;;;11.97;;
42066;SDS011;27734;47.028;28.820;2023-02-08T01:38:10;29.57;;;11.00;;
42066;SDS011;27734;47.028;28.820;2023-02-08T01:40:42;29.97;;;11.10;;
42066;SDS011;27734;47.028;28.820;2023-02-08T01:43:20;28.93;;;10.27;;
42066;SDS011;27734;47.028;28.820;2023-02-08T01:45:54;31.83;;;13.27;;
42066;SDS011;27734;47.028;28.820;2023-02-08T01:48:27;31.57;;;11.87;;
42066;SDS011;27734;47.028;28.820;2023-02-08T01:51:05;32.60;;;13.00;;
42066;SDS011;27734;47.028;28.820;2023-02-08T01:53:43;36.70;;;14.47;;
42066;SDS011;27734;47.028;28.820;2023-02-08T01:56:20;34.17;;;11.33;;
42066;SDS011;27734;47.028;28.820;2023-02-08T01:58:57;31.60;;;11.27;;
42066;SDS011;27734;47.028;28.820;2023-02-08T02:01:32;32.17;;;12.53;;
42066;SDS011;27734;47.028;28.820;2023-02-08T02:04:05;25.03;;;9.90;;
42066;SDS011;27734;47.028;28.820;2023-02-08T02:06:39;31.17;;;11.90;;
42066;SDS011;27734;47.028;28.820;2023-02-08T02:09:15;33.23;;;13.07;;
42066;SDS011;27734;47.028;28.820;2023-02-08T02:11:50;32.40;;;13.10;;
42066;SDS011;27734;47.028;28.820;2023-02-08T02:14:23;33.75;;;12.78;;
42066;SDS011;27734;47.028;28.820;2023-02-08T02:16:55;33.57;;;13.70;;
42066;SDS011;27734;47.028;28.820;2023-02-08T02:19:32;32.13;;;12.33;;
42066;SDS011;27734;47.028;28.820;2023-02-08T02:22:22;32.90;;;12.58;;
42066;SDS011;27734;47.028;28.820;2023-02-08T02:31:09;32.20;;;12.57;;
42066;SDS011;27734;47.028;28.820;2023-02-08T02:34:00;31.77;;;12.87;;
42066;SDS011;27734;47.028;28.820;2023-02-08T02:36:37;36.40;;;15.70;;
42066;SDS011;27734;47.028;28.820;2023-02-08T02:39:16;33.97;;;15.07;;
42066;SDS011;27734;47.028;28.820;2023-02-08T02:41:55;37.57;;;14.90;;
42066;SDS011;27734;47.028;28.820;2023-02-08T02:47:25;36.08;;;12.63;;
42066;SDS011;27734;47.028;28.820;2023-02-08T02:50:03;33.57;;;13.53;;
42066;SDS011;27734;47.028;28.820;2023-02-08T02:52:42;38.10;;;13.53;;
42066;SDS011;27734;47.028;28.820;2023-02-08T02:55:19;31.97;;;12.73;;
42066;SDS011;27734;47.028;28.820;2023-02-08T02:57:54;33.70;;;13.37;;
42066;SDS011;27734;47.028;28.820;2023-02-08T03:00:30;35.37;;;13.73;;
42066;SDS011;27734;47.028;28.820;2023-02-08T03:03:08;35.15;;;14.00;;
42066;SDS011;27734;47.028;28.820;2023-02-08T03:05:49;34.87;;;12.80;;
42066;SDS011;27734;47.028;28.820;2023-02-08T03:08:33;36.80;;;13.60;;
42066;SDS011;27734;47.028;28.820;2023-02-08T03:11:24;35.47;;;13.20;;
42066;SDS011;27734;47.028;28.820;2023-02-08T03:14:06;34.77;;;12.17;;
42066;SDS011;27734;47.028;28.820;2023-02-08T03:16:56;32.37;;;13.23;;
42066;SDS011;27734;47.028;28.820;2023-02-08T03:19:48;32.33;;;12.33;;
42066;SDS011;27734;47.028;28.820;2023-02-08T03:22:29;33.97;;;12.10;;
42066;SDS011;27734;47.028;28.820;2023-02-08T03:25:08;39.37;;;14.53;;
42066;SDS011;27734;47.028;28.820;2023-02-08T03:27:48;37.10;;;13.50;;
42066;SDS011;27734;47.028;28.820;2023-02-08T03:30:31;38.85;;;13.72;;
42066;SDS011;27734;47.028;28.820;2023-02-08T03:33:14;35.70;;;14.10;;
42066;SDS011;27734;47.028;28.820;2023-02-08T03:35:55;36.23;;;15.07;;
42066;SDS011;27734;47.028;28.820;2023-02-08T03:38:33;37.93;;;14.10;;
42066;SDS011;27734;47.028;28.820;2023-02-08T03:41:12;36.40;;;14.90;;
42066;SDS011;27734;47.028;28.820;2023-02-08T03:43:48;36.80;;;14.90;;
42066;SDS011;27734;47.028;28.820;2023-02-08T03:46:26;34.27;;;14.33;;
42066;SDS011;27734;47.028;28.820;2023-02-08T03:49:02;37.90;;;17.53;;
42066;SDS011;27734;47.028;28.820;2023-02-08T03:51:38;38.27;;;15.53;;
42066;SDS011;27734;47.028;28.820;2023-02-08T03:54:12;37.73;;;14.87;;
42066;SDS011;27734;47.028;28.820;2023-02-08T03:56:51;40.53;;;14.27;;
42066;SDS011;27734;47.028;28.820;2023-02-08T03:59:28;40.40;;;16.07;;
42066;SDS011;27734;47.028;28.820;2023-02-08T04:02:05;37.53;;;14.10;;
42066;SDS011;27734;47.028;28.820;2023-02-08T04:04:41;37.50;;;14.07;;
42066;SDS011;27734;47.028;28.820;2023-02-08T04:07:16;34.20;;;12.60;;
42066;SDS011;27734;47.028;28.820;2023-02-08T04:09:49;34.73;;;13.17;;
42066;SDS011;27734;47.028;28.820;2023-02-08T04:12:21;34.77;;;14.00;;
42066;SDS011;27734;47.028;28.820;2023-02-08T04:14:53;35.57;;;14.33;;
42066;SDS011;27734;47.028;28.820;2023-02-08T04:17:26;35.73;;;14.10;;
42066;SDS011;27734;47.028;28.820;2023-02-08T04:19:58;30.73;;;11.33;;
42066;SDS011;27734;47.028;28.820;2023-02-08T04:22:31;34.90;;;13.30;;
42066;SDS011;27734;47.028;28.820;2023-02-08T04:25:03;36.63;;;13.70;;
42066;SDS011;27734;47.028;28.820;2023-02-08T04:27:35;39.83;;;15.20;;
42066;SDS011;27734;47.028;28.820;2023-02-08T04:30:10;34.15;;;13.35;;
42066;SDS011;27734;47.028;28.820;2023-02-08T04:32:43;32.77;;;13.10;;
42066;SDS011;27734;47.028;28.820;2023-02-08T04:35:15;36.10;;;14.03;;
42066;SDS011;27734;47.028;28.820;2023-02-08T04:37:47;34.20;;;13.47;;
42066;SDS011;27734;47.028;28.820;2023-02-08T04:40:20;40.93;;;13.70;;
42066;SDS011;27734;47.028;28.820;2023-02-08T04:42:52;35.23;;;12.60;;
42066;SDS011;27734;47.028;28.820;2023-02-08T04:45:24;38.50;;;13.90;;
42066;SDS011;27734;47.028;28.820;2023-02-08T04:47:59;39.70;;;15.32;;
42066;SDS011;27734;47.028;28.820;2023-02-08T04:50:32;37.53;;;14.07;;
42066;SDS011;27734;47.028;28.820;2023-02-08T04:53:04;44.53;;;16.47;;
42066;SDS011;27734;47.028;28.820;2023-02-08T04:55:36;39.40;;;15.40;;
42066;SDS011;27734;47.028;28.820;2023-02-08T04:58:09;44.67;;;16.53;;
42066;SDS011;27734;47.028;28.820;2023-02-08T05:00:41;43.37;;;16.83;;
42066;SDS011;27734;47.028;28.820;2023-02-08T05:03:13;41.83;;;14.93;;
42066;SDS011;27734;47.028;28.820;2023-02-08T05:05:45;44.97;;;17.97;;
42066;SDS011;27734;47.028;28.820;2023-02-08T05:08:25;43.97;;;16.40;;
42066;SDS011;27734;47.028;28.820;2023-02-08T05:10:57;37.67;;;15.60;;
42066;SDS011;27734;47.028;28.820;2023-02-08T05:13:30;38.20;;;14.77;;
42066;SDS011;27734;47.028;28.820;2023-02-08T05:16:02;33.90;;;14.40;;
42066;SDS011;27734;47.028;28.820;2023-02-08T05:18:34;38.10;;;14.33;;
42066;SDS011;27734;47.028;28.820;2023-02-08T05:21:07;38.83;;;14.53;;
42066;SDS011;27734;47.028;28.820;2023-02-08T05:23:39;34.57;;;13.70;;
42066;SDS011;27734;47.028;28.820;2023-02-08T05:26:12;34.93;;;13.23;;
42066;SDS011;27734;47.028;28.820;2023-02-08T05:28:44;35.90;;;13.90;;
42066;SDS011;27734;47.028;28.820;2023-02-08T05:31:18;36.90;;;13.03;;
42066;SDS011;27734;47.028;28.820;2023-02-08T05:33:52;34.80;;;12.93;;
42066;SDS011;27734;47.028;28.820;2023-02-08T05:36:25;37.00;;;14.00;;
42066;SDS011;27734;47.028;28.820;2023-02-08T05:38:57;37.90;;;13.97;;
42066;SDS011;27734;47.028;28.820;2023-02-08T05:41:30;38.63;;;15.87;;
42066;SDS011;27734;47.028;28.820;2023-02-08T05:44:02;43.03;;;16.87;;
42066;SDS011;27734;47.028;28.820;2023-02-08T05:46:34;44.40;;;16.80;;
42066;SDS011;27734;47.028;28.820;2023-02-08T05:49:07;39.20;;;15.47;;
42066;SDS011;27734;47.028;28.820;2023-02-08T05:51:39;40.53;;;14.90;;
42066;SDS011;27734;47.028;28.820;2023-02-08T05:54:13;37.50;;;14.07;;
42066;SDS011;27734;47.028;28.820;2023-02-08T05:56:46;40.20;;;14.20;;
42066;SDS011;27734;47.028;28.820;2023-02-08T05:59:18;38.30;;;13.20;;
42066;SDS011;27734;47.028;28.820;2023-02-08T06:01:50;36.10;;;15.00;;
42066;SDS011;27734;47.028;28.820;2023-02-08T06:04:22;37.90;;;13.37;;
42066;SDS011;27734;47.028;28.820;2023-02-08T06:06:55;39.13;;;14.53;;
42066;SDS011;27734;47.028;28.820;2023-02-08T06:09:27;34.50;;;13.50;;
42066;SDS011;27734;47.028;28.820;2023-02-08T06:11:59;35.17;;;13.93;;
42066;SDS011;27734;47.028;28.820;2023-02-08T06:14:32;42.73;;;15.77;;
42066;SDS011;27734;47.028;28.820;2023-02-08T06:17:04;37.33;;;14.43;;
42066;SDS011;27734;47.028;28.820;2023-02-08T06:19:38;41.70;;;15.83;;
42066;SDS011;27734;47.028;28.820;2023-02-08T06:22:10;40.17;;;15.60;;
42066;SDS011;27734;47.028;28.820;2023-02-08T06:24:42;40.07;;;14.80;;
42066;SDS011;27734;47.028;28.820;2023-02-08T06:27:19;36.50;;;14.53;;
42066;SDS011;27734;47.028;28.820;2023-02-08T06:29:51;39.67;;;16.43;;
42066;SDS011;27734;47.028;28.820;2023-02-08T06:32:25;41.25;;;16.77;;
42066;SDS011;27734;47.028;28.820;2023-02-08T06:34:57;42.93;;;16.23;;
42066;SDS011;27734;47.028;28.820;2023-02-08T06:37:30;42.03;;;16.97;;
42066;SDS011;27734;47.028;28.820;2023-02-08T06:40:02;40.57;;;16.10;;
42066;SDS011;27734;47.028;28.820;2023-02-08T06:42:36;42.05;;;17.30;;
42066;SDS011;27734;47.028;28.820;2023-02-08T06:45:11;45.70;;;19.73;;
42066;SDS011;27734;47.028;28.820;2023-02-08T06:47:43;40.40;;;16.20;;
42066;SDS011;27734;47.028;28.820;2023-02-08T06:50:15;39.43;;;17.13;;
42066;SDS011;27734;47.028;28.820;2023-02-08T06:52:48;41.70;;;17.23;;
42066;SDS011;27734;47.028;28.820;2023-02-08T06:55:20;42.00;;;17.07;;
42066;SDS011;27734;47.028;28.820;2023-02-08T06:57:53;35.10;;;14.47;;
42066;SDS011;27734;47.028;28.820;2023-02-08T07:00:28;34.80;;;14.30;;
42066;SDS011;27734;47.028;28.820;2023-02-08T07:03:02;38.90;;;15.23;;
42066;SDS011;27734;47.028;28.820;2023-02-08T07:05:34;38.93;;;15.63;;
42066;SDS011;27734;47.028;28.820;2023-02-08T07:08:07;39.50;;;14.87;;
42066;SDS011;27734;47.028;28.820;2023-02-08T07:10:42;34.20;;;15.33;;
42066;SDS011;27734;47.028;28.820;2023-02-08T07:13:15;36.57;;;14.73;;
42066;SDS011;27734;47.028;28.820;2023-02-08T07:15:52;34.50;;;13.73;;
42066;SDS011;27734;47.028;28.820;2023-02-08T07:18:24;39.93;;;14.60;;
42066;SDS011;27734;47.028;28.820;2023-02-08T07:20:57;37.40;;;13.93;;
42066;SDS011;27734;47.028;28.820;2023-02-08T07:23:29;38.30;;;14.70;;
42066;SDS011;27734;47.028;28.820;2023-02-08T07:26:04;37.93;;;15.25;;
42066;SDS011;27734;47.028;28.820;2023-02-08T07:28:38;39.17;;;15.87;;
42066;SDS011;27734;47.028;28.820;2023-02-08T07:31:13;44.37;;;15.83;;
42066;SDS011;27734;47.028;28.820;2023-02-08T07:33:46;40.57;;;15.57;;
42066;SDS011;27734;47.028;28.820;2023-02-08T07:36:19;35.87;;;14.90;;
42066;SDS011;27734;47.028;28.820;2023-02-08T07:38:53;39.83;;;14.87;;
42066;SDS011;27734;47.028;28.820;2023-02-08T07:41:26;37.53;;;14.23;;
42066;SDS011;27734;47.028;28.820;2023-02-08T07:44:01;35.50;;;14.20;;
42066;SDS011;27734;47.028;28.820;2023-02-08T07:46:34;35.33;;;14.23;;
42066;SDS011;27734;47.028;28.820;2023-02-08T07:49:06;36.60;;;15.40;;
42066;SDS011;27734;47.028;28.820;2023-02-08T07:51:39;33.40;;;13.90;;
42066;SDS011;27734;47.028;28.820;2023-02-08T07:54:15;34.83;;;14.27;;
42066;SDS011;27734;47.028;28.820;2023-02-08T07:56:51;35.00;;;14.77;;
42066;SDS011;27734;47.028;28.820;2023-02-08T07:59:24;38.30;;;15.47;;
42066;SDS011;27734;47.028;28.820;2023-02-08T08:01:57;37.50;;;13.40;;
42066;SDS011;27734;47.028;28.820;2023-02-08T08:04:32;34.37;;;13.53;;
42066;SDS011;27734;47.028;28.820;2023-02-08T08:07:05;36.50;;;14.70;;
42066;SDS011;27734;47.028;28.820;2023-02-08T08:09:38;39.37;;;15.10;;
42066;SDS011;27734;47.028;28.820;2023-02-08T08:12:12;36.60;;;14.67;;
42066;SDS011;27734;47.028;28.820;2023-02-08T08:14:44;39.53;;;14.50;;
42066;SDS011;27734;47.028;28.820;2023-02-08T08:17:17;34.23;;;13.67;;
42066;SDS011;27734;47.028;28.820;2023-02-08T08:19:52;36.10;;;14.23;;
42066;SDS011;27734;47.028;28.820;2023-02-08T08:22:25;41.37;;;15.87;;
42066;SDS011;27734;47.028;28.820;2023-02-08T08:24:57;34.60;;;14.20;;
42066;SDS011;27734;47.028;28.820;2023-02-08T08:27:30;32.40;;;12.57;;
42066;SDS011;27734;47.028;28.820;2023-02-08T08:30:06;33.30;;;14.30;;
42066;SDS011;27734;47.028;28.820;2023-02-08T08:32:40;38.23;;;15.33;;
42066;SDS011;27734;47.028;28.820;2023-02-08T08:35:13;37.07;;;14.50;;
42066;SDS011;27734;47.028;28.820;2023-02-08T08:37:45;36.27;;;13.40;;
42066;SDS011;27734;47.028;28.820;2023-02-08T08:40:18;29.70;;;11.67;;
42066;SDS011;27734;47.028;28.820;2023-02-08T08:42:51;32.03;;;12.63;;
42066;SDS011;27734;47.028;28.820;2023-02-08T08:45:23;29.40;;;11.40;;
42066;SDS011;27734;47.028;28.820;2023-02-08T08:47:56;30.83;;;12.17;;
42066;SDS011;27734;47.028;28.820;2023-02-08T08:50:30;32.23;;;11.80;;
42066;SDS011;27734;47.028;28.820;2023-02-08T08:53:02;30.47;;;12.03;;
42066;SDS011;27734;47.028;28.820;2023-02-08T08:55:35;31.90;;;13.37;;
42066;SDS011;27734;47.028;28.820;2023-02-08T08:58:07;32.83;;;12.87;;
42066;SDS011;27734;47.028;28.820;2023-02-08T09:00:40;34.27;;;13.97;;
42066;SDS011;27734;47.028;28.820;2023-02-08T09:03:12;32.80;;;12.57;;
42066;SDS011;27734;47.028;28.820;2023-02-08T09:05:46;31.53;;;12.53;;
42066;SDS011;27734;47.028;28.820;2023-02-08T09:08:18;29.03;;;11.17;;
42066;SDS011;27734;47.028;28.820;2023-02-08T09:10:52;27.83;;;11.83;;
42066;SDS011;27734;47.028;28.820;2023-02-08T09:13:26;30.37;;;12.23;;
42066;SDS011;27734;47.028;28.820;2023-02-08T09:15:59;32.77;;;13.00;;
42066;SDS011;27734;47.028;28.820;2023-02-08T09:18:36;31.17;;;11.63;;
42066;SDS011;27734;47.028;28.820;2023-02-08T09:21:09;30.33;;;11.47;;
42066;SDS011;27734;47.028;28.820;2023-02-08T09:23:45;31.90;;;11.73;;
42066;SDS011;27734;47.028;28.820;2023-02-08T09:26:27;27.33;;;10.20;;
42066;SDS011;27734;47.028;28.820;2023-02-08T09:29:01;29.03;;;11.90;;
42066;SDS011;27734;47.028;28.820;2023-02-08T09:31:34;27.95;;;10.78;;
42066;SDS011;27734;47.028;28.820;2023-02-08T09:34:10;27.80;;;10.57;;
42066;SDS011;27734;47.028;28.820;2023-02-08T09:36:42;28.33;;;10.20;;
42066;SDS011;27734;47.028;28.820;2023-02-08T09:39:16;27.27;;;11.10;;
42066;SDS011;27734;47.028;28.820;2023-02-08T09:41:57;27.73;;;11.73;;
42066;SDS011;27734;47.028;28.820;2023-02-08T09:44:54;25.53;;;11.33;;
42066;SDS011;27734;47.028;28.820;2023-02-08T09:47:41;23.90;;;9.77;;
42066;SDS011;27734;47.028;28.820;2023-02-08T09:50:20;27.37;;;9.70;;
42066;SDS011;27734;47.028;28.820;2023-02-08T09:53:07;28.67;;;10.10;;
42066;SDS011;27734;47.028;28.820;2023-02-08T09:55:47;31.27;;;11.23;;
42066;SDS011;27734;47.028;28.820;2023-02-08T09:58:23;19.90;;;7.90;;
42066;SDS011;27734;47.028;28.820;2023-02-08T10:01:02;29.37;;;10.80;;
42066;SDS011;27734;47.028;28.820;2023-02-08T10:03:42;23.80;;;8.47;;
42066;SDS011;27734;47.028;28.820;2023-02-08T10:06:17;26.53;;;9.27;;
42066;SDS011;27734;47.028;28.820;2023-02-08T10:08:51;28.00;;;10.63;;
42066;SDS011;27734;47.028;28.820;2023-02-08T10:11:31;24.77;;;8.90;;
42066;SDS011;27734;47.028;28.820;2023-02-08T10:14:26;25.00;;;8.77;;
42066;SDS011;27734;47.028;28.820;2023-02-08T10:20:21;20.77;;;7.53;;
42066;SDS011;27734;47.028;28.820;2023-02-08T10:23:07;19.23;;;8.00;;
42066;SDS011;27734;47.028;28.820;2023-02-08T10:26:13;26.53;;;8.20;;
42066;SDS011;27734;47.028;28.820;2023-02-08T10:28:59;25.93;;;8.10;;
42066;SDS011;27734;47.028;28.820;2023-02-08T10:32:03;22.73;;;8.07;;
42066;SDS011;27734;47.028;28.820;2023-02-08T10:34:46;22.75;;;8.20;;
42066;SDS011;27734;47.028;28.820;2023-02-08T10:37:43;25.90;;;9.37;;
42066;SDS011;27734;47.028;28.820;2023-02-08T10:40:23;24.03;;;8.90;;
42066;SDS011;27734;47.028;28.820;2023-02-08T10:43:13;25.43;;;8.90;;
42066;SDS011;27734;47.028;28.820;2023-02-08T10:45:55;24.60;;;9.50;;
42066;SDS011;27734;47.028;28.820;2023-02-08T10:48:47;23.07;;;8.97;;
42066;SDS011;27734;47.028;28.820;2023-02-08T10:51:47;25.32;;;9.18;;
42066;SDS011;27734;47.028;28.820;2023-02-08T10:54:27;24.40;;;9.70;;
42066;SDS011;27734;47.028;28.820;2023-02-08T10:57:11;24.23;;;9.40;;
42066;SDS011;27734;47.028;28.820;2023-02-08T10:59:55;22.17;;;7.70;;
42066;SDS011;27734;47.028;28.820;2023-02-08T11:02:57;23.47;;;8.73;;
42066;SDS011;27734;47.028;28.820;2023-02-08T11:06:03;23.47;;;9.10;;
42066;SDS011;27734;47.028;28.820;2023-02-08T11:09:24;25.53;;;8.63;;
42066;SDS011;27734;47.028;28.820;2023-02-08T11:12:18;25.77;;;9.10;;
42066;SDS011;27734;47.028;28.820;2023-02-08T11:14:58;21.77;;;7.33;;
42066;SDS011;27734;47.028;28.820;2023-02-08T11:17:51;24.70;;;8.50;;
42066;SDS011;27734;47.028;28.820;2023-02-08T11:20:33;19.00;;;7.07;;
42066;SDS011;27734;47.028;28.820;2023-02-08T11:23:21;21.13;;;7.20;;
42066;SDS011;27734;47.028;28.820;2023-02-08T11:26:20;27.40;;;9.50;;
42066;SDS011;27734;47.028;28.820;2023-02-08T11:29:04;24.10;;;8.30;;
42066;SDS011;27734;47.028;28.820;2023-02-08T11:32:00;23.37;;;9.00;;
42066;SDS011;27734;47.028;28.820;2023-02-08T11:35:10;23.73;;;8.90;;
42066;SDS011;27734;47.028;28.820;2023-02-08T11:37:57;22.77;;;8.07;;
42066;SDS011;27734;47.028;28.820;2023-02-08T11:40:42;19.90;;;7.80;;
42066;SDS011;27734;47.028;28.820;2023-02-08T11:43:23;26.03;;;8.63;;
42066;SDS011;27734;47.028;28.820;2023-02-08T11:46:06;24.03;;;7.60;;
42066;SDS011;27734;47.028;28.820;2023-02-08T11:48:56;22.00;;;8.27;;
42066;SDS011;27734;47.028;28.820;2023-02-08T11:51:29;19.42;;;6.65;;
42066;SDS011;27734;47.028;28.820;2023-02-08T11:54:30;21.57;;;8.03;;
42066;SDS011;27734;47.028;28.820;2023-02-08T11:57:16;20.67;;;7.33;;
42066;SDS011;27734;47.028;28.820;2023-02-08T11:59:51;18.70;;;6.70;;
42066;SDS011;27734;47.028;28.820;2023-02-08T12:02:54;19.93;;;6.90;;
42066;SDS011;27734;47.028;28.820;2023-02-08T12:05:42;19.73;;;7.20;;
42066;SDS011;27734;47.028;28.820;2023-02-08T12:08:30;16.23;;;6.33;;
42066;SDS011;27734;47.028;28.820;2023-02-08T12:11:24;21.07;;;7.00;;
42066;SDS011;27734;47.028;28.820;2023-02-08T12:14:21;20.77;;;7.37;;
42066;SDS011;27734;47.028;28.820;2023-02-08T12:17:20;20.23;;;6.77;;
42066;SDS011;27734;47.028;28.820;2023-02-08T12:23:25;19.87;;;7.13;;
42066;SDS011;27734;47.028;28.820;2023-02-08T12:26:13;18.23;;;7.03;;
42066;SDS011;27734;47.028;28.820;2023-02-08T12:29:00;14.23;;;6.10;;
42066;SDS011;27734;47.028;28.820;2023-02-08T12:31:47;18.87;;;7.10;;
42066;SDS011;27734;47.028;28.820;2023-02-08T12:34:37;17.67;;;5.97;;
42066;SDS011;27734;47.028;28.820;2023-02-08T12:37:25;18.33;;;7.07;;
42066;SDS011;27734;47.028;28.820;2023-02-08T12:40:28;18.17;;;7.20;;
42066;SDS011;27734;47.028;28.820;2023-02-08T12:46:37;20.20;;;7.00;;
42066;SDS011;27734;47.028;28.820;2023-02-08T12:49:43;22.43;;;7.10;;
42066;SDS011;27734;47.028;28.820;2023-02-08T12:52:24;19.77;;;7.57;;
42066;SDS011;27734;47.028;28.820;2023-02-08T12:55:11;19.50;;;7.07;;
42066;SDS011;27734;47.028;28.820;2023-02-08T12:57:50;16.33;;;6.20;;
42066;SDS011;27734;47.028;28.820;2023-02-08T13:00:30;19.07;;;6.10;;
42066;SDS011;27734;47.028;28.820;2023-02-08T13:03:08;18.67;;;7.17;;
42066;SDS011;27734;47.028;28.820;2023-02-08T13:05:48;21.10;;;7.23;;
42066;SDS011;27734;47.028;28.820;2023-02-08T13:08:28;18.80;;;7.10;;
42066;SDS011;27734;47.028;28.820;2023-02-08T13:11:12;18.90;;;6.43;;
42066;SDS011;27734;47.028;28.820;2023-02-08T13:13:52;22.20;;;7.47;;
42066;SDS011;27734;47.028;28.820;2023-02-08T13:16:38;20.90;;;7.43;;
42066;SDS011;27734;47.028;28.820;2023-02-08T13:19:22;22.07;;;7.70;;
42066;SDS011;27734;47.028;28.820;2023-02-08T13:22:02;17.20;;;7.30;;
42066;SDS011;27734;47.028;28.820;2023-02-08T13:24:40;20.57;;;6.40;;
42066;SDS011;27734;47.028;28.820;2023-02-08T13:27:32;20.50;;;6.67;;
42066;SDS011;27734;47.028;28.820;2023-02-08T13:30:14;22.07;;;6.77;;
42066;SDS011;27734;47.028;28.820;2023-02-08T13:32:53;19.40;;;7.23;;
42066;SDS011;27734;47.028;28.820;2023-02-08T13:35:40;21.40;;;7.43;;
42066;SDS011;27734;47.028;28.820;2023-02-08T13:38:26;20.43;;;7.57;;
42066;SDS011;27734;47.028;28.820;2023-02-08T13:41:05;20.40;;;6.53;;
42066;SDS011;27734;47.028;28.820;2023-02-08T13:46:34;31.03;;;9.77;;
42066;SDS011;27734;47.028;28.820;2023-02-08T13:58:36;19.35;;;6.60;;
42066;SDS011;27734;47.028;28.820;2023-02-08T14:01:27;25.67;;;7.60;;
42066;SDS011;27734;47.028;28.820;2023-02-08T14:07:22;20.07;;;7.07;;
42066;SDS011;27734;47.028;28.820;2023-02-08T14:10:12;17.83;;;6.97;;
42066;SDS011;27734;47.028;28.820;2023-02-08T14:12:57;21.07;;;7.27;;
42066;SDS011;27734;47.028;28.820;2023-02-08T14:15:37;18.63;;;7.20;;
42066;SDS011;27734;47.028;28.820;2023-02-08T14:18:20;19.40;;;7.13;;
42066;SDS011;27734;47.028;28.820;2023-02-08T14:21:00;25.80;;;8.43;;
42066;SDS011;27734;47.028;28.820;2023-02-08T14:23:35;20.33;;;7.20;;
42066;SDS011;27734;47.028;28.820;2023-02-08T14:26:14;21.00;;;8.00;;
42066;SDS011;27734;47.028;28.820;2023-02-08T14:28:55;21.50;;;7.42;;
42066;SDS011;27734;47.028;28.820;2023-02-08T14:31:41;20.13;;;7.23;;
42066;SDS011;27734;47.028;28.820;2023-02-08T14:34:21;22.97;;;7.53;;
42066;SDS011;27734;47.028;28.820;2023-02-08T14:37:00;20.10;;;7.37;;
42066;SDS011;27734;47.028;28.820;2023-02-08T14:39:43;22.43;;;7.47;;
42066;SDS011;27734;47.028;28.820;2023-02-08T14:45:29;24.33;;;7.40;;
42066;SDS011;27734;47.028;28.820;2023-02-08T14:48:04;19.80;;;7.37;;
42066;SDS011;27734;47.028;28.820;2023-02-08T14:51:05;18.37;;;6.90;;
42066;SDS011;27734;47.028;28.820;2023-02-08T14:53:49;19.80;;;7.30;;
42066;SDS011;27734;47.028;28.820;2023-02-08T14:56:26;21.97;;;7.87;;
42066;SDS011;27734;47.028;28.820;2023-02-08T14:59:03;25.73;;;9.47;;
42066;SDS011;27734;47.028;28.820;2023-02-08T15:01:42;24.33;;;8.27;;
42066;SDS011;27734;47.028;28.820;2023-02-08T15:04:17;26.33;;;8.47;;
42066;SDS011;27734;47.028;28.820;2023-02-08T15:06:58;20.03;;;7.17;;
42066;SDS011;27734;47.028;28.820;2023-02-08T15:09:51;19.37;;;7.70;;
42066;SDS011;27734;47.028;28.820;2023-02-08T15:12:27;25.17;;;7.80;;
42066;SDS011;27734;47.028;28.820;2023-02-08T15:15:03;21.90;;;8.13;;
42066;SDS011;27734;47.028;28.820;2023-02-08T15:17:50;21.23;;;8.47;;
42066;SDS011;27734;47.028;28.820;2023-02-08T15:20:25;25.10;;;7.50;;
42066;SDS011;27734;47.028;28.820;2023-02-08T15:23:00;21.77;;;7.57;;
42066;SDS011;27734;47.028;28.820;2023-02-08T15:25:35;22.40;;;7.53;;
42066;SDS011;27734;47.028;28.820;2023-02-08T15:28:17;19.83;;;7.87;;
42066;SDS011;27734;47.028;28.820;2023-02-08T15:30:54;27.35;;;9.70;;
42066;SDS011;27734;47.028;28.820;2023-02-08T15:33:29;35.40;;;12.90;;
42066;SDS011;27734;47.028;28.820;2023-02-08T15:36:02;33.57;;;13.03;;
42066;SDS011;27734;47.028;28.820;2023-02-08T15:38:37;37.17;;;13.00;;
42066;SDS011;27734;47.028;28.820;2023-02-08T15:41:13;28.83;;;10.60;;
42066;SDS011;27734;47.028;28.820;2023-02-08T15:44:01;32.13;;;9.87;;
42066;SDS011;27734;47.028;28.820;2023-02-08T15:46:43;32.00;;;10.47;;
42066;SDS011;27734;47.028;28.820;2023-02-08T15:49:17;24.40;;;8.93;;
42066;SDS011;27734;47.028;28.820;2023-02-08T15:51:54;23.97;;;8.10;;
42066;SDS011;27734;47.028;28.820;2023-02-08T15:54:27;23.27;;;8.37;;
42066;SDS011;27734;47.028;28.820;2023-02-08T15:57:01;26.27;;;8.70;;